sensor_id;sensor_type;location;lat;lon;timestamp;temperature;humidity
2723;DHT22;1369;53.216;10.396;2024-01-11T00:00:30;-3.60;99.90
2723;DHT22;1369;53.216;10.396;2024-01-11T00:02:56;-3.60;99.90
2723;DHT22;1369;53.216;10.396;2024-01-11T00:05:21;-3.50;99.90
2723;DHT22;1369;53.216;10.396;2024-01-11T00:07:48;-3.50;99.90
2723;DHT22;1369;53.216;10.396;2024-01-11T00:10:14;-3.50;99.90
2723;DHT22;1369;53.216;10.396;2024-01-11T00:12:39;-3.40;99.90
2723;DHT22;1369;53.216;10.396;2024-01-11T00:15:05;-3.40;99.90
2723;DHT22;1369;53.216;10.396;2024-01-11T00:17:31;-3.30;99.90
2723;DHT22;1369;53.216;10.396;2024-01-11T00:19:57;-3.30;99.90
2723;DHT22;1369;53.216;10.396;2024-01-11T00:22:22;-3.30;99.90
2723;DHT22;1369;53.216;10.396;2024-01-11T00:24:48;-3.40;99.90
2723;DHT22;1369;53.216;10.396;2024-01-11T00:27:14;-3.30;99.90
2723;DHT22;1369;53.216;10.396;2024-01-11T00:29:39;-3.30;99.90
2723;DHT22;1369;53.216;10.396;2024-01-11T00:32:05;-3.30;99.90
2723;DHT22;1369;53.216;10.396;2024-01-11T00:34:31;-3.30;99.90
2723;DHT22;1369;53.216;10.396;2024-01-11T00:36:57;-3.20;99.90
2723;DHT22;1369;53.216;10.396;2024-01-11T00:39:22;-3.20;99.90
2723;DHT22;1369;53.216;10.396;2024-01-11T00:41:48;-3.40;99.90
2723;DHT22;1369;53.216;10.396;2024-01-11T00:44:14;-3.50;99.90
2723;DHT22;1369;53.216;10.396;2024-01-11T00:46:39;-3.60;99.90
2723;DHT22;1369;53.216;10.396;2024-01-11T00:49:06;-3.60;99.90
2723;DHT22;1369;53.216;10.396;2024-01-11T00:51:32;-3.50;99.90
2723;DHT22;1369;53.216;10.396;2024-01-11T00:53:58;-3.40;99.90
2723;DHT22;1369;53.216;10.396;2024-01-11T00:56:24;-3.30;99.90
2723;DHT22;1369;53.216;10.396;2024-01-11T00:58:49;-3.30;99.90
2723;DHT22;1369;53.216;10.396;2024-01-11T01:01:15;-3.30;99.90
2723;DHT22;1369;53.216;10.396;2024-01-11T01:03:41;-3.20;99.90
2723;DHT22;1369;53.216;10.396;2024-01-11T01:06:06;-3.20;99.90
2723;DHT22;1369;53.216;10.396;2024-01-11T01:08:33;-3.20;99.90
2723;DHT22;1369;53.216;10.396;2024-01-11T01:10:59;-3.20;99.90
2723;DHT22;1369;53.216;10.396;2024-01-11T01:13:25;-3.20;99.90
2723;DHT22;1369;53.216;10.396;2024-01-11T01:15:51;-3.30;99.90
2723;DHT22;1369;53.216;10.396;2024-01-11T01:18:16;-3.30;99.90
2723;DHT22;1369;53.216;10.396;2024-01-11T01:20:42;-3.30;99.90
2723;DHT22;1369;53.216;10.396;2024-01-11T01:23:09;-3.30;99.90
2723;DHT22;1369;53.216;10.396;2024-01-11T01:25:35;-3.30;99.90
2723;DHT22;1369;53.216;10.396;2024-01-11T01:28:01;-3.30;99.90
2723;DHT22;1369;53.216;10.396;2024-01-11T01:30:27;-3.20;99.90
2723;DHT22;1369;53.216;10.396;2024-01-11T01:32:53;-3.20;99.90
2723;DHT22;1369;53.216;10.396;2024-01-11T01:35:19;-3.20;99.90
2723;DHT22;1369;53.216;10.396;2024-01-11T01:37:45;-3.20;99.90
2723;DHT22;1369;53.216;10.396;2024-01-11T01:40:12;-3.20;99.90
2723;DHT22;1369;53.216;10.396;2024-01-11T01:42:45;-3.20;99.90
2723;DHT22;1369;53.216;10.396;2024-01-11T01:45:11;-3.20;99.90
2723;DHT22;1369;53.216;10.396;2024-01-11T01:47:41;-3.20;99.90
2723;DHT22;1369;53.216;10.396;2024-01-11T01:50:08;-3.20;99.90
2723;DHT22;1369;53.216;10.396;2024-01-11T01:52:36;-3.20;99.90
2723;DHT22;1369;53.216;10.396;2024-01-11T01:55:03;-3.20;99.90
2723;DHT22;1369;53.216;10.396;2024-01-11T01:57:31;-3.30;99.90
2723;DHT22;1369;53.216;10.396;2024-01-11T01:59:58;-3.30;99.90
2723;DHT22;1369;53.216;10.396;2024-01-11T02:02:24;-3.40;99.90
2723;DHT22;1369;53.216;10.396;2024-01-11T02:04:51;-3.50;99.90
2723;DHT22;1369;53.216;10.396;2024-01-11T02:07:17;-3.50;99.90
2723;DHT22;1369;53.216;10.396;2024-01-11T02:09:44;-3.50;99.90
2723;DHT22;1369;53.216;10.396;2024-01-11T02:12:10;-3.40;99.90
2723;DHT22;1369;53.216;10.396;2024-01-11T02:14:39;-3.50;99.90
2723;DHT22;1369;53.216;10.396;2024-01-11T02:17:05;-3.50;99.90
2723;DHT22;1369;53.216;10.396;2024-01-11T02:19:31;-3.40;99.90
2723;DHT22;1369;53.216;10.396;2024-01-11T02:22:02;-3.40;99.90
2723;DHT22;1369;53.216;10.396;2024-01-11T02:24:30;-3.40;99.90
2723;DHT22;1369;53.216;10.396;2024-01-11T02:27:00;-3.40;99.90
2723;DHT22;1369;53.216;10.396;2024-01-11T02:29:27;-3.60;99.90
2723;DHT22;1369;53.216;10.396;2024-01-11T02:31:56;-3.60;99.90
2723;DHT22;1369;53.216;10.396;2024-01-11T02:34:27;-3.60;99.90
2723;DHT22;1369;53.216;10.396;2024-01-11T02:36:54;-3.60;99.90
2723;DHT22;1369;53.216;10.396;2024-01-11T02:39:20;-3.60;99.90
2723;DHT22;1369;53.216;10.396;2024-01-11T02:41:49;-3.60;99.90
2723;DHT22;1369;53.216;10.396;2024-01-11T02:44:15;-3.60;99.90
2723;DHT22;1369;53.216;10.396;2024-01-11T02:46:41;-3.60;99.90
2723;DHT22;1369;53.216;10.396;2024-01-11T02:49:07;-3.60;99.90
2723;DHT22;1369;53.216;10.396;2024-01-11T02:51:32;-3.60;99.90
2723;DHT22;1369;53.216;10.396;2024-01-11T02:53:58;-3.60;99.90
2723;DHT22;1369;53.216;10.396;2024-01-11T02:56:24;-3.60;99.90
2723;DHT22;1369;53.216;10.396;2024-01-11T02:58:50;-3.60;99.90
2723;DHT22;1369;53.216;10.396;2024-01-11T03:01:16;-3.60;99.90
2723;DHT22;1369;53.216;10.396;2024-01-11T03:03:41;-3.60;99.90
2723;DHT22;1369;53.216;10.396;2024-01-11T03:06:07;-3.60;99.90
2723;DHT22;1369;53.216;10.396;2024-01-11T03:08:33;-3.50;99.90
2723;DHT22;1369;53.216;10.396;2024-01-11T03:10:59;-3.50;99.90
2723;DHT22;1369;53.216;10.396;2024-01-11T03:13:24;-3.60;99.90
2723;DHT22;1369;53.216;10.396;2024-01-11T03:15:50;-3.70;99.90
2723;DHT22;1369;53.216;10.396;2024-01-11T03:18:15;-3.80;99.90
2723;DHT22;1369;53.216;10.396;2024-01-11T03:20:41;-3.70;99.90
2723;DHT22;1369;53.216;10.396;2024-01-11T03:23:07;-3.60;99.90
2723;DHT22;1369;53.216;10.396;2024-01-11T03:25:33;-3.60;99.90
2723;DHT22;1369;53.216;10.396;2024-01-11T03:27:59;-3.50;99.90
2723;DHT22;1369;53.216;10.396;2024-01-11T03:30:25;-3.50;99.90
2723;DHT22;1369;53.216;10.396;2024-01-11T03:32:51;-3.50;99.90
2723;DHT22;1369;53.216;10.396;2024-01-11T03:35:18;-3.50;99.90
2723;DHT22;1369;53.216;10.396;2024-01-11T03:37:43;-3.60;99.90
2723;DHT22;1369;53.216;10.396;2024-01-11T03:40:09;-3.50;99.90
2723;DHT22;1369;53.216;10.396;2024-01-11T03:42:35;-3.50;99.90
2723;DHT22;1369;53.216;10.396;2024-01-11T03:45:01;-3.50;99.90
2723;DHT22;1369;53.216;10.396;2024-01-11T03:47:27;-3.50;99.90
2723;DHT22;1369;53.216;10.396;2024-01-11T03:49:52;-3.50;99.90
2723;DHT22;1369;53.216;10.396;2024-01-11T03:52:18;-3.40;99.90
2723;DHT22;1369;53.216;10.396;2024-01-11T03:54:44;-3.40;99.90
2723;DHT22;1369;53.216;10.396;2024-01-11T03:57:09;-3.30;99.90
2723;DHT22;1369;53.216;10.396;2024-01-11T03:59:35;-3.30;99.90
2723;DHT22;1369;53.216;10.396;2024-01-11T04:02:01;-3.30;99.90
2723;DHT22;1369;53.216;10.396;2024-01-11T04:04:26;-3.30;99.90
2723;DHT22;1369;53.216;10.396;2024-01-11T04:06:52;-3.30;99.90
2723;DHT22;1369;53.216;10.396;2024-01-11T04:09:18;-3.20;99.90
2723;DHT22;1369;53.216;10.396;2024-01-11T04:11:45;-3.20;99.90
2723;DHT22;1369;53.216;10.396;2024-01-11T04:14:11;-3.30;99.90
2723;DHT22;1369;53.216;10.396;2024-01-11T04:16:42;-3.30;99.90
2723;DHT22;1369;53.216;10.396;2024-01-11T04:19:08;-3.30;99.90
2723;DHT22;1369;53.216;10.396;2024-01-11T04:21:34;-3.30;99.90
2723;DHT22;1369;53.216;10.396;2024-01-11T04:23:59;-3.20;99.90
2723;DHT22;1369;53.216;10.396;2024-01-11T04:26:25;-3.20;99.90
2723;DHT22;1369;53.216;10.396;2024-01-11T04:28:52;-3.10;99.90
2723;DHT22;1369;53.216;10.396;2024-01-11T04:31:18;-3.10;99.90
2723;DHT22;1369;53.216;10.396;2024-01-11T04:33:45;-3.10;99.90
2723;DHT22;1369;53.216;10.396;2024-01-11T04:36:11;-3.10;99.90
2723;DHT22;1369;53.216;10.396;2024-01-11T04:38:38;-3.10;99.90
2723;DHT22;1369;53.216;10.396;2024-01-11T04:41:10;-3.20;99.90
2723;DHT22;1369;53.216;10.396;2024-01-11T04:43:41;-3.20;99.90
2723;DHT22;1369;53.216;10.396;2024-01-11T04:46:21;-3.30;99.90
2723;DHT22;1369;53.216;10.396;2024-01-11T04:48:47;-3.30;99.90
2723;DHT22;1369;53.216;10.396;2024-01-11T04:51:15;-3.20;99.90
2723;DHT22;1369;53.216;10.396;2024-01-11T04:53:41;-3.20;99.90
2723;DHT22;1369;53.216;10.396;2024-01-11T04:56:08;-3.20;99.90
2723;DHT22;1369;53.216;10.396;2024-01-11T04:58:35;-3.20;99.90
2723;DHT22;1369;53.216;10.396;2024-01-11T05:01:03;-3.10;99.90
2723;DHT22;1369;53.216;10.396;2024-01-11T05:03:29;-3.10;99.90
2723;DHT22;1369;53.216;10.396;2024-01-11T05:05:55;-3.10;99.90
2723;DHT22;1369;53.216;10.396;2024-01-11T05:08:21;-3.10;99.90
2723;DHT22;1369;53.216;10.396;2024-01-11T05:10:47;-3.00;99.90
2723;DHT22;1369;53.216;10.396;2024-01-11T05:13:13;-3.00;99.90
2723;DHT22;1369;53.216;10.396;2024-01-11T05:15:38;-3.00;99.90
2723;DHT22;1369;53.216;10.396;2024-01-11T05:18:04;-3.00;99.90
2723;DHT22;1369;53.216;10.396;2024-01-11T05:20:29;-3.00;99.90
2723;DHT22;1369;53.216;10.396;2024-01-11T05:22:55;-3.00;99.90
2723;DHT22;1369;53.216;10.396;2024-01-11T05:25:21;-3.00;99.90
2723;DHT22;1369;53.216;10.396;2024-01-11T05:27:47;-3.00;99.90
2723;DHT22;1369;53.216;10.396;2024-01-11T05:30:13;-2.90;99.90
2723;DHT22;1369;53.216;10.396;2024-01-11T05:32:38;-2.90;99.90
2723;DHT22;1369;53.216;10.396;2024-01-11T05:35:04;-3.00;99.90
2723;DHT22;1369;53.216;10.396;2024-01-11T05:37:30;-3.10;99.90
2723;DHT22;1369;53.216;10.396;2024-01-11T05:39:55;-3.10;99.90
2723;DHT22;1369;53.216;10.396;2024-01-11T05:42:23;-3.00;99.90
2723;DHT22;1369;53.216;10.396;2024-01-11T05:44:48;-2.90;99.90
2723;DHT22;1369;53.216;10.396;2024-01-11T05:47:14;-2.90;99.90
2723;DHT22;1369;53.216;10.396;2024-01-11T05:49:40;-2.90;99.90
2723;DHT22;1369;53.216;10.396;2024-01-11T05:52:06;-2.90;99.90
2723;DHT22;1369;53.216;10.396;2024-01-11T05:54:32;-2.90;99.90
2723;DHT22;1369;53.216;10.396;2024-01-11T05:56:57;-2.90;99.90
2723;DHT22;1369;53.216;10.396;2024-01-11T05:59:24;-2.90;99.90
2723;DHT22;1369;53.216;10.396;2024-01-11T06:01:50;-2.90;99.90
2723;DHT22;1369;53.216;10.396;2024-01-11T06:04:16;-2.80;99.90
2723;DHT22;1369;53.216;10.396;2024-01-11T06:06:42;-2.70;99.90
2723;DHT22;1369;53.216;10.396;2024-01-11T06:09:08;-2.70;99.90
2723;DHT22;1369;53.216;10.396;2024-01-11T06:11:34;-2.70;99.90
2723;DHT22;1369;53.216;10.396;2024-01-11T06:13:59;-2.60;99.90
2723;DHT22;1369;53.216;10.396;2024-01-11T06:16:26;-2.60;99.90
2723;DHT22;1369;53.216;10.396;2024-01-11T06:18:52;-2.60;99.90
2723;DHT22;1369;53.216;10.396;2024-01-11T06:21:18;-2.60;99.90
2723;DHT22;1369;53.216;10.396;2024-01-11T06:23:44;-2.60;99.90
2723;DHT22;1369;53.216;10.396;2024-01-11T06:26:09;-2.50;99.90
2723;DHT22;1369;53.216;10.396;2024-01-11T06:28:35;-2.50;99.90
2723;DHT22;1369;53.216;10.396;2024-01-11T06:31:01;-2.50;99.90
2723;DHT22;1369;53.216;10.396;2024-01-11T06:33:27;-2.50;99.90
2723;DHT22;1369;53.216;10.396;2024-01-11T06:35:53;-2.40;99.90
2723;DHT22;1369;53.216;10.396;2024-01-11T06:38:19;-2.40;99.90
2723;DHT22;1369;53.216;10.396;2024-01-11T06:40:45;-2.40;99.90
2723;DHT22;1369;53.216;10.396;2024-01-11T06:43:11;-2.40;99.90
2723;DHT22;1369;53.216;10.396;2024-01-11T06:45:37;-2.30;99.90
2723;DHT22;1369;53.216;10.396;2024-01-11T06:48:02;-2.40;99.90
2723;DHT22;1369;53.216;10.396;2024-01-11T06:50:28;-2.40;99.90
2723;DHT22;1369;53.216;10.396;2024-01-11T06:52:54;-2.40;99.90
2723;DHT22;1369;53.216;10.396;2024-01-11T06:55:20;-2.40;99.90
2723;DHT22;1369;53.216;10.396;2024-01-11T06:57:48;-2.30;99.90
2723;DHT22;1369;53.216;10.396;2024-01-11T07:00:14;-2.30;99.90
2723;DHT22;1369;53.216;10.396;2024-01-11T07:02:40;-2.30;99.90
2723;DHT22;1369;53.216;10.396;2024-01-11T07:05:06;-2.30;99.90
2723;DHT22;1369;53.216;10.396;2024-01-11T07:07:33;-2.30;99.90
2723;DHT22;1369;53.216;10.396;2024-01-11T07:09:59;-2.30;99.90
2723;DHT22;1369;53.216;10.396;2024-01-11T07:12:25;-2.30;99.90
2723;DHT22;1369;53.216;10.396;2024-01-11T07:14:53;-2.30;99.90
2723;DHT22;1369;53.216;10.396;2024-01-11T07:17:19;-2.30;99.90
2723;DHT22;1369;53.216;10.396;2024-01-11T07:19:44;-2.30;99.90
2723;DHT22;1369;53.216;10.396;2024-01-11T07:22:10;-2.20;99.90
2723;DHT22;1369;53.216;10.396;2024-01-11T07:24:36;-2.20;99.90
2723;DHT22;1369;53.216;10.396;2024-01-11T07:27:05;-2.10;99.90
2723;DHT22;1369;53.216;10.396;2024-01-11T07:29:31;-2.10;99.90
2723;DHT22;1369;53.216;10.396;2024-01-11T07:31:57;-2.10;99.90
2723;DHT22;1369;53.216;10.396;2024-01-11T07:34:22;-2.00;99.90
2723;DHT22;1369;53.216;10.396;2024-01-11T07:36:50;-2.00;99.90
2723;DHT22;1369;53.216;10.396;2024-01-11T07:39:16;-1.90;99.90
2723;DHT22;1369;53.216;10.396;2024-01-11T07:41:41;-1.90;99.90
2723;DHT22;1369;53.216;10.396;2024-01-11T07:44:07;-1.90;99.90
2723;DHT22;1369;53.216;10.396;2024-01-11T07:46:33;-2.00;99.90
2723;DHT22;1369;53.216;10.396;2024-01-11T07:48:58;-2.00;99.90
2723;DHT22;1369;53.216;10.396;2024-01-11T07:51:24;-1.90;99.90
2723;DHT22;1369;53.216;10.396;2024-01-11T07:53:50;-1.90;99.90
2723;DHT22;1369;53.216;10.396;2024-01-11T07:56:16;-1.90;99.90
2723;DHT22;1369;53.216;10.396;2024-01-11T07:58:42;-1.80;99.90
2723;DHT22;1369;53.216;10.396;2024-01-11T08:01:09;-1.80;99.90
2723;DHT22;1369;53.216;10.396;2024-01-11T08:03:35;-1.70;99.90
2723;DHT22;1369;53.216;10.396;2024-01-11T08:06:01;-1.70;99.90
2723;DHT22;1369;53.216;10.396;2024-01-11T08:08:27;-1.70;99.90
2723;DHT22;1369;53.216;10.396;2024-01-11T08:10:53;-1.70;99.90
2723;DHT22;1369;53.216;10.396;2024-01-11T08:13:19;-1.60;99.90
2723;DHT22;1369;53.216;10.396;2024-01-11T08:15:46;-1.60;99.90
2723;DHT22;1369;53.216;10.396;2024-01-11T08:18:12;-1.50;99.90
2723;DHT22;1369;53.216;10.396;2024-01-11T08:20:39;-1.50;99.90
2723;DHT22;1369;53.216;10.396;2024-01-11T08:23:05;-1.40;99.90
2723;DHT22;1369;53.216;10.396;2024-01-11T08:25:30;-1.40;99.90
2723;DHT22;1369;53.216;10.396;2024-01-11T08:27:56;-1.30;99.90
2723;DHT22;1369;53.216;10.396;2024-01-11T08:30:22;-1.30;99.90
2723;DHT22;1369;53.216;10.396;2024-01-11T08:32:48;-1.20;99.90
2723;DHT22;1369;53.216;10.396;2024-01-11T08:35:14;-1.20;99.90
2723;DHT22;1369;53.216;10.396;2024-01-11T08:37:40;-1.10;99.90
2723;DHT22;1369;53.216;10.396;2024-01-11T08:40:06;-1.10;99.90
2723;DHT22;1369;53.216;10.396;2024-01-11T08:42:32;-1.00;99.90
2723;DHT22;1369;53.216;10.396;2024-01-11T08:44:58;-1.00;99.90
2723;DHT22;1369;53.216;10.396;2024-01-11T08:47:24;-1.00;99.90
2723;DHT22;1369;53.216;10.396;2024-01-11T08:49:50;-0.90;99.90
2723;DHT22;1369;53.216;10.396;2024-01-11T08:52:15;-0.90;99.90
2723;DHT22;1369;53.216;10.396;2024-01-11T08:54:41;-0.80;99.90
2723;DHT22;1369;53.216;10.396;2024-01-11T08:57:07;-0.70;99.90
2723;DHT22;1369;53.216;10.396;2024-01-11T08:59:33;-0.70;99.90
2723;DHT22;1369;53.216;10.396;2024-01-11T09:01:58;-0.70;99.90
2723;DHT22;1369;53.216;10.396;2024-01-11T09:04:24;-0.60;99.90
2723;DHT22;1369;53.216;10.396;2024-01-11T09:06:50;-0.50;99.90
2723;DHT22;1369;53.216;10.396;2024-01-11T09:09:15;-0.50;99.90
2723;DHT22;1369;53.216;10.396;2024-01-11T09:11:42;-0.40;99.90
2723;DHT22;1369;53.216;10.396;2024-01-11T09:14:08;-0.30;99.90
2723;DHT22;1369;53.216;10.396;2024-01-11T09:16:36;-0.30;99.90
2723;DHT22;1369;53.216;10.396;2024-01-11T09:19:02;-0.30;99.90
2723;DHT22;1369;53.216;10.396;2024-01-11T09:21:28;-0.30;99.90
2723;DHT22;1369;53.216;10.396;2024-01-11T09:23:53;-0.30;99.90
2723;DHT22;1369;53.216;10.396;2024-01-11T09:26:19;-0.20;99.90
2723;DHT22;1369;53.216;10.396;2024-01-11T09:28:45;-0.20;99.90
2723;DHT22;1369;53.216;10.396;2024-01-11T09:31:11;-0.10;99.90
2723;DHT22;1369;53.216;10.396;2024-01-11T09:33:37;-0.10;99.90
2723;DHT22;1369;53.216;10.396;2024-01-11T09:36:03;0.00;99.90
2723;DHT22;1369;53.216;10.396;2024-01-11T09:38:29;0.00;99.90
2723;DHT22;1369;53.216;10.396;2024-01-11T09:41:13;0.00;99.90
2723;DHT22;1369;53.216;10.396;2024-01-11T09:43:41;0.10;99.90
2723;DHT22;1369;53.216;10.396;2024-01-11T09:46:09;0.10;99.90
2723;DHT22;1369;53.216;10.396;2024-01-11T09:48:37;0.20;99.90
2723;DHT22;1369;53.216;10.396;2024-01-11T09:51:04;0.20;99.90
2723;DHT22;1369;53.216;10.396;2024-01-11T09:53:33;0.20;99.90
2723;DHT22;1369;53.216;10.396;2024-01-11T09:55:59;0.30;99.90
2723;DHT22;1369;53.216;10.396;2024-01-11T09:58:26;0.20;99.90
2723;DHT22;1369;53.216;10.396;2024-01-11T10:00:56;0.30;99.90
2723;DHT22;1369;53.216;10.396;2024-01-11T10:03:25;0.30;99.90
2723;DHT22;1369;53.216;10.396;2024-01-11T10:05:56;0.40;99.90
2723;DHT22;1369;53.216;10.396;2024-01-11T10:08:23;0.40;99.90
2723;DHT22;1369;53.216;10.396;2024-01-11T10:10:50;0.50;99.90
2723;DHT22;1369;53.216;10.396;2024-01-11T10:13:16;0.50;99.90
2723;DHT22;1369;53.216;10.396;2024-01-11T10:15:42;0.60;99.90
2723;DHT22;1369;53.216;10.396;2024-01-11T10:18:08;0.60;99.90
2723;DHT22;1369;53.216;10.396;2024-01-11T10:20:34;0.70;99.90
2723;DHT22;1369;53.216;10.396;2024-01-11T10:23:00;0.70;99.90
2723;DHT22;1369;53.216;10.396;2024-01-11T10:25:26;0.70;99.90
2723;DHT22;1369;53.216;10.396;2024-01-11T10:27:52;0.80;99.90
2723;DHT22;1369;53.216;10.396;2024-01-11T10:30:18;0.80;99.90
2723;DHT22;1369;53.216;10.396;2024-01-11T10:32:46;0.80;99.90
2723;DHT22;1369;53.216;10.396;2024-01-11T10:35:13;0.70;99.90
2723;DHT22;1369;53.216;10.396;2024-01-11T10:37:39;0.70;99.90
2723;DHT22;1369;53.216;10.396;2024-01-11T10:40:08;0.70;99.90
2723;DHT22;1369;53.216;10.396;2024-01-11T10:42:45;0.70;99.90
2723;DHT22;1369;53.216;10.396;2024-01-11T10:45:16;0.80;99.90
2723;DHT22;1369;53.216;10.396;2024-01-11T10:47:54;0.70;99.90
2723;DHT22;1369;53.216;10.396;2024-01-11T10:50:23;0.70;99.90
2723;DHT22;1369;53.216;10.396;2024-01-11T10:53:20;0.70;99.90
2723;DHT22;1369;53.216;10.396;2024-01-11T10:55:51;0.70;99.90
2723;DHT22;1369;53.216;10.396;2024-01-11T10:58:18;0.80;99.90
2723;DHT22;1369;53.216;10.396;2024-01-11T11:00:45;0.80;99.90
2723;DHT22;1369;53.216;10.396;2024-01-11T11:03:12;0.80;99.90
2723;DHT22;1369;53.216;10.396;2024-01-11T11:05:40;0.80;99.90
2723;DHT22;1369;53.216;10.396;2024-01-11T11:08:07;0.90;99.90
2723;DHT22;1369;53.216;10.396;2024-01-11T11:10:34;0.90;99.90
2723;DHT22;1369;53.216;10.396;2024-01-11T11:13:00;0.90;99.90
2723;DHT22;1369;53.216;10.396;2024-01-11T11:15:29;0.90;99.90
2723;DHT22;1369;53.216;10.396;2024-01-11T11:17:55;0.90;99.90
2723;DHT22;1369;53.216;10.396;2024-01-11T11:20:22;0.90;99.90
2723;DHT22;1369;53.216;10.396;2024-01-11T11:23:07;0.90;99.90
2723;DHT22;1369;53.216;10.396;2024-01-11T11:25:34;0.90;99.90
2723;DHT22;1369;53.216;10.396;2024-01-11T11:28:00;1.00;99.90
2723;DHT22;1369;53.216;10.396;2024-01-11T11:30:32;0.90;99.90
2723;DHT22;1369;53.216;10.396;2024-01-11T11:32:57;1.00;99.90
2723;DHT22;1369;53.216;10.396;2024-01-11T11:35:24;1.10;99.90
2723;DHT22;1369;53.216;10.396;2024-01-11T11:37:55;1.10;99.90
2723;DHT22;1369;53.216;10.396;2024-01-11T11:40:33;1.10;99.90
2723;DHT22;1369;53.216;10.396;2024-01-11T11:43:02;1.20;99.90
2723;DHT22;1369;53.216;10.396;2024-01-11T11:45:31;1.20;99.90
2723;DHT22;1369;53.216;10.396;2024-01-11T11:47:57;1.30;99.90
2723;DHT22;1369;53.216;10.396;2024-01-11T11:50:23;1.30;99.90
2723;DHT22;1369;53.216;10.396;2024-01-11T11:52:56;1.30;99.90
2723;DHT22;1369;53.216;10.396;2024-01-11T11:55:25;1.30;99.90
2723;DHT22;1369;53.216;10.396;2024-01-11T11:57:51;1.30;99.90
2723;DHT22;1369;53.216;10.396;2024-01-11T12:00:19;1.30;99.90
2723;DHT22;1369;53.216;10.396;2024-01-11T12:02:47;1.30;99.90
2723;DHT22;1369;53.216;10.396;2024-01-11T12:05:13;1.40;99.90
2723;DHT22;1369;53.216;10.396;2024-01-11T12:07:39;1.40;99.90
2723;DHT22;1369;53.216;10.396;2024-01-11T12:10:06;1.40;99.90
2723;DHT22;1369;53.216;10.396;2024-01-11T12:12:34;1.50;99.90
2723;DHT22;1369;53.216;10.396;2024-01-11T12:14:59;1.50;99.90
2723;DHT22;1369;53.216;10.396;2024-01-11T12:17:25;1.50;99.90
2723;DHT22;1369;53.216;10.396;2024-01-11T12:19:52;1.50;99.90
2723;DHT22;1369;53.216;10.396;2024-01-11T12:22:17;1.50;99.90
2723;DHT22;1369;53.216;10.396;2024-01-11T12:24:45;1.50;99.90
2723;DHT22;1369;53.216;10.396;2024-01-11T12:27:11;1.50;99.90
2723;DHT22;1369;53.216;10.396;2024-01-11T12:29:39;1.50;99.90
2723;DHT22;1369;53.216;10.396;2024-01-11T12:32:04;1.60;99.90
2723;DHT22;1369;53.216;10.396;2024-01-11T12:34:30;1.50;99.90
2723;DHT22;1369;53.216;10.396;2024-01-11T12:36:56;1.50;99.90
2723;DHT22;1369;53.216;10.396;2024-01-11T12:39:26;1.50;99.90
2723;DHT22;1369;53.216;10.396;2024-01-11T12:41:54;1.50;99.90
2723;DHT22;1369;53.216;10.396;2024-01-11T12:44:20;1.50;99.90
2723;DHT22;1369;53.216;10.396;2024-01-11T12:46:51;1.50;99.90
2723;DHT22;1369;53.216;10.396;2024-01-11T12:49:17;1.50;99.90
2723;DHT22;1369;53.216;10.396;2024-01-11T12:51:43;1.50;99.90
2723;DHT22;1369;53.216;10.396;2024-01-11T12:54:11;1.60;99.90
2723;DHT22;1369;53.216;10.396;2024-01-11T12:56:42;1.60;99.90
2723;DHT22;1369;53.216;10.396;2024-01-11T12:59:08;1.60;99.90
2723;DHT22;1369;53.216;10.396;2024-01-11T13:01:36;1.60;99.90
2723;DHT22;1369;53.216;10.396;2024-01-11T13:04:01;1.60;99.90
2723;DHT22;1369;53.216;10.396;2024-01-11T13:06:32;1.60;99.90
2723;DHT22;1369;53.216;10.396;2024-01-11T13:09:00;1.60;99.90
2723;DHT22;1369;53.216;10.396;2024-01-11T13:11:26;1.60;99.90
2723;DHT22;1369;53.216;10.396;2024-01-11T13:13:53;1.60;99.90
2723;DHT22;1369;53.216;10.396;2024-01-11T13:16:19;1.70;99.90
2723;DHT22;1369;53.216;10.396;2024-01-11T13:18:45;1.70;99.90
2723;DHT22;1369;53.216;10.396;2024-01-11T13:21:11;1.70;99.90
2723;DHT22;1369;53.216;10.396;2024-01-11T13:23:40;1.70;99.90
2723;DHT22;1369;53.216;10.396;2024-01-11T13:26:07;1.70;99.90
2723;DHT22;1369;53.216;10.396;2024-01-11T13:28:33;1.70;99.90
2723;DHT22;1369;53.216;10.396;2024-01-11T13:30:59;1.70;99.90
2723;DHT22;1369;53.216;10.396;2024-01-11T13:33:25;1.70;99.90
2723;DHT22;1369;53.216;10.396;2024-01-11T13:35:51;1.70;99.90
2723;DHT22;1369;53.216;10.396;2024-01-11T13:38:17;1.70;99.90
2723;DHT22;1369;53.216;10.396;2024-01-11T13:40:43;1.70;99.90
2723;DHT22;1369;53.216;10.396;2024-01-11T13:43:09;1.70;99.90
2723;DHT22;1369;53.216;10.396;2024-01-11T13:45:35;1.70;99.90
2723;DHT22;1369;53.216;10.396;2024-01-11T13:48:05;1.80;99.90
2723;DHT22;1369;53.216;10.396;2024-01-11T13:50:31;1.70;99.90
2723;DHT22;1369;53.216;10.396;2024-01-11T13:52:57;1.70;99.90
2723;DHT22;1369;53.216;10.396;2024-01-11T13:55:23;1.70;99.90
2723;DHT22;1369;53.216;10.396;2024-01-11T13:57:50;1.70;99.90
2723;DHT22;1369;53.216;10.396;2024-01-11T14:00:16;1.70;99.90
2723;DHT22;1369;53.216;10.396;2024-01-11T14:02:44;1.70;99.90
2723;DHT22;1369;53.216;10.396;2024-01-11T14:05:11;1.70;99.90
2723;DHT22;1369;53.216;10.396;2024-01-11T14:07:40;1.70;99.90
2723;DHT22;1369;53.216;10.396;2024-01-11T14:10:07;1.70;99.90
2723;DHT22;1369;53.216;10.396;2024-01-11T14:12:37;1.70;99.90
2723;DHT22;1369;53.216;10.396;2024-01-11T14:15:04;1.70;99.90
2723;DHT22;1369;53.216;10.396;2024-01-11T14:17:31;1.80;99.90
2723;DHT22;1369;53.216;10.396;2024-01-11T14:19:57;1.70;99.90
2723;DHT22;1369;53.216;10.396;2024-01-11T14:22:23;1.70;99.90
2723;DHT22;1369;53.216;10.396;2024-01-11T14:24:49;1.70;99.90
2723;DHT22;1369;53.216;10.396;2024-01-11T14:27:15;1.70;99.90
2723;DHT22;1369;53.216;10.396;2024-01-11T14:29:41;1.70;99.90
2723;DHT22;1369;53.216;10.396;2024-01-11T14:32:07;1.70;99.90
2723;DHT22;1369;53.216;10.396;2024-01-11T14:34:33;1.70;99.90
2723;DHT22;1369;53.216;10.396;2024-01-11T14:36:59;1.60;99.90
2723;DHT22;1369;53.216;10.396;2024-01-11T14:39:25;1.60;99.90
2723;DHT22;1369;53.216;10.396;2024-01-11T14:41:52;1.70;99.90
2723;DHT22;1369;53.216;10.396;2024-01-11T14:44:17;1.70;99.90
2723;DHT22;1369;53.216;10.396;2024-01-11T14:46:49;1.70;99.90
2723;DHT22;1369;53.216;10.396;2024-01-11T14:49:15;1.60;99.90
2723;DHT22;1369;53.216;10.396;2024-01-11T14:51:41;1.60;99.90
2723;DHT22;1369;53.216;10.396;2024-01-11T14:54:07;1.60;99.90
2723;DHT22;1369;53.216;10.396;2024-01-11T14:56:33;1.60;99.90
2723;DHT22;1369;53.216;10.396;2024-01-11T14:59:00;1.60;99.90
2723;DHT22;1369;53.216;10.396;2024-01-11T15:01:27;1.60;99.90
2723;DHT22;1369;53.216;10.396;2024-01-11T15:03:52;1.60;99.90
2723;DHT22;1369;53.216;10.396;2024-01-11T15:06:19;1.60;99.90
2723;DHT22;1369;53.216;10.396;2024-01-11T15:08:44;1.50;99.90
2723;DHT22;1369;53.216;10.396;2024-01-11T15:11:10;1.50;99.90
2723;DHT22;1369;53.216;10.396;2024-01-11T15:13:36;1.50;99.90
2723;DHT22;1369;53.216;10.396;2024-01-11T15:16:02;1.60;99.90
2723;DHT22;1369;53.216;10.396;2024-01-11T15:18:28;1.60;99.90
2723;DHT22;1369;53.216;10.396;2024-01-11T15:20:53;1.50;99.90
2723;DHT22;1369;53.216;10.396;2024-01-11T15:23:19;1.50;99.90
2723;DHT22;1369;53.216;10.396;2024-01-11T15:25:45;1.50;99.90
2723;DHT22;1369;53.216;10.396;2024-01-11T15:28:11;1.50;99.90
2723;DHT22;1369;53.216;10.396;2024-01-11T15:30:37;1.50;99.90
2723;DHT22;1369;53.216;10.396;2024-01-11T15:33:03;1.50;99.90
2723;DHT22;1369;53.216;10.396;2024-01-11T15:35:29;1.50;99.90
2723;DHT22;1369;53.216;10.396;2024-01-11T15:37:54;1.40;99.90
2723;DHT22;1369;53.216;10.396;2024-01-11T15:40:20;1.40;99.90
2723;DHT22;1369;53.216;10.396;2024-01-11T15:42:46;1.40;99.90
2723;DHT22;1369;53.216;10.396;2024-01-11T15:45:11;1.40;99.90
2723;DHT22;1369;53.216;10.396;2024-01-11T15:47:37;1.40;99.90